Time,TemperatureF,DewpointF,PressureIn,WindDirection,WindDirectionDegrees,WindSpeedMPH,WindSpeedGustMPH,Humidity,HourlyPrecipIn,Conditions,Clouds,dailyrainin,SoftwareType,DateUTC
2013-07-23 00:00:00,70.2,68.9,29.81,NW,305,0.0,0.0,96,0.00,,,0.00,meteobridge,2013-07-23 04:00:00,
2013-07-23 00:02:00,70.2,68.9,29.81,NW,305,0.0,0.0,96,0.00,,,0.00,meteobridge,2013-07-23 04:02:00,
2013-07-23 00:05:00,70.2,69.3,29.81,NW,305,0.0,0.0,97,0.00,,,0.00,meteobridge,2013-07-23 04:05:00,
2013-07-23 00:09:00,70.2,69.3,29.81,NW,305,0.0,0.0,97,0.00,,,0.00,meteobridge,2013-07-23 04:09:00,
2013-07-23 00:15:00,70.2,68.9,29.81,NW,305,0.0,0.0,96,0.00,,,0.00,meteobridge,2013-07-23 04:15:00,
2013-07-23 00:21:00,70.2,68.9,29.81,NW,305,0.0,0.0,96,0.00,,,0.00,meteobridge,2013-07-23 04:21:00,
2013-07-23 00:28:00,70.0,68.7,29.81,NW,305,0.0,0.0,96,0.00,,,0.00,meteobridge,2013-07-23 04:28:00,
2013-07-23 00:30:00,70.0,68.7,29.81,NW,305,0.0,0.0,96,0.00,,,0.00,meteobridge,2013-07-23 04:30:00,
2013-07-23 00:36:00,69.8,68.5,29.81,NW,306,0.0,0.0,96,0.00,,,0.00,meteobridge,2013-07-23 04:36:00,
2013-07-23 00:42:00,69.6,68.4,29.82,NW,305,0.0,0.0,96,0.00,,,0.00,meteobridge,2013-07-23 04:42:00,
2013-07-23 00:49:00,69.6,68.7,29.81,NW,305,0.0,0.0,97,0.00,,,0.00,meteobridge,2013-07-23 04:49:00,
2013-07-23 00:55:00,69.4,68.2,29.81,NW,305,0.0,0.0,96,0.00,,,0.00,meteobridge,2013-07-23 04:55:00,
2013-07-23 01:01:00,69.3,68.4,29.81,NW,305,0.0,0.0,97,0.00,,,0.00,meteobridge,2013-07-23 05:01:00,
2013-07-23 01:08:00,68.7,67.8,29.81,NW,305,0.0,0.0,97,0.00,,,0.00,meteobridge,2013-07-23 05:08:00,
2013-07-23 01:14:00,68.5,67.6,29.82,NW,305,0.0,0.0,97,0.00,,,0.00,meteobridge,2013-07-23 05:14:00,
2013-07-23 01:20:00,68.5,67.6,29.82,NW,306,0.0,0.0,97,0.00,,,0.00,meteobridge,2013-07-23 05:20:00,
2013-07-23 01:27:00,68.5,67.6,29.82,NW,305,0.0,0.0,97,0.00,,,0.00,meteobridge,2013-07-23 05:27:00,
2013-07-23 01:33:00,68.7,67.8,29.82,NW,305,0.0,0.0,97,0.00,,,0.00,meteobridge,2013-07-23 05:33:00,
2013-07-23 01:39:00,69.1,68.2,29.82,NW,305,0.0,0.0,97,0.00,,,0.00,meteobridge,2013-07-23 05:39:00,
2013-07-23 01:46:00,68.7,67.8,29.82,NW,306,0.0,0.0,97,0.00,,,0.00,meteobridge,2013-07-23 05:46:00,
2013-07-23 01:52:00,68.7,67.8,29.83,NW,305,0.0,0.0,97,0.00,,,0.00,meteobridge,2013-07-23 05:52:00,
2013-07-23 01:58:00,68.7,67.8,29.83,NW,306,0.0,0.0,97,0.00,,,0.00,meteobridge,2013-07-23 05:58:00,
2013-07-23 02:05:00,68.2,67.3,29.83,NW,305,0.0,0.0,97,0.00,,,0.00,meteobridge,2013-07-23 06:05:00,
2013-07-23 02:11:00,68.2,67.3,29.83,NW,305,0.0,0.0,97,0.00,,,0.00,meteobridge,2013-07-23 06:11:00,
2013-07-23 02:17:00,68.2,67.3,29.83,NW,305,0.0,0.0,97,0.00,,,0.00,meteobridge,2013-07-23 06:17:00,
2013-07-23 02:24:00,68.2,67.3,29.83,NW,305,0.0,0.0,97,0.00,,,0.00,meteobridge,2013-07-23 06:24:00,
2013-07-23 02:30:00,68.4,67.5,29.82,NW,305,0.0,0.0,97,0.00,,,0.00,meteobridge,2013-07-23 06:30:00,
2013-07-23 02:36:00,68.4,67.5,29.82,NW,305,0.0,0.0,97,0.00,,,0.00,meteobridge,2013-07-23 06:36:00,
2013-07-23 02:42:00,68.2,67.3,29.82,NW,305,0.0,0.0,97,0.00,,,0.00,meteobridge,2013-07-23 06:42:00,
2013-07-23 02:48:00,68.2,67.3,29.81,NW,305,0.0,0.0,97,0.00,,,0.00,meteobridge,2013-07-23 06:48:00,
2013-07-23 02:55:00,68.2,67.3,29.81,NW,305,0.0,0.0,97,0.00,,,0.00,meteobridge,2013-07-23 06:55:00,
2013-07-23 03:01:00,68.2,67.3,29.81,NW,305,0.0,0.0,97,0.00,,,0.00,meteobridge,2013-07-23 07:01:00,
2013-07-23 03:07:00,68.4,67.5,29.81,NW,305,0.0,0.0,97,0.00,,,0.00,meteobridge,2013-07-23 07:07:00,
2013-07-23 03:14:00,68.4,67.5,29.80,NW,305,0.0,0.0,97,0.00,,,0.00,meteobridge,2013-07-23 07:14:00,
2013-07-23 03:20:00,68.0,67.1,29.81,NW,305,0.0,0.0,97,0.00,,,0.00,meteobridge,2013-07-23 07:20:00,
2013-07-23 03:26:00,67.8,66.9,29.81,NW,305,0.0,0.0,97,0.00,,,0.00,meteobridge,2013-07-23 07:26:00,
2013-07-23 03:32:00,67.6,66.7,29.80,NW,306,0.0,0.0,97,0.00,,,0.00,meteobridge,2013-07-23 07:32:00,
2013-07-23 03:39:00,68.0,67.1,29.80,NW,305,0.0,0.0,97,0.00,,,0.00,meteobridge,2013-07-23 07:39:00,
2013-07-23 03:46:00,67.6,66.7,29.80,NW,305,0.0,0.0,97,0.00,,,0.00,meteobridge,2013-07-23 07:46:00,
2013-07-23 03:52:00,67.6,66.7,29.80,NW,305,0.0,0.0,97,0.00,,,0.00,meteobridge,2013-07-23 07:52:00,
2013-07-23 03:58:00,67.6,66.7,29.80,NW,305,0.0,0.0,97,0.00,,,0.00,meteobridge,2013-07-23 07:58:00,
2013-07-23 04:05:00,67.5,66.6,29.80,NW,305,0.0,0.0,97,0.00,,,0.00,meteobridge,2013-07-23 08:05:00,
2013-07-23 04:11:00,67.3,66.4,29.80,NW,305,0.0,0.0,97,0.00,,,0.00,meteobridge,2013-07-23 08:11:00,
2013-07-23 04:17:00,66.9,66.0,29.80,NW,305,0.0,0.0,97,0.00,,,0.00,meteobridge,2013-07-23 08:17:00,
2013-07-23 04:24:00,67.6,67.1,29.80,NW,305,0.0,0.0,98,0.00,,,0.00,meteobridge,2013-07-23 08:24:00,
2013-07-23 04:30:00,67.6,66.7,29.80,NW,305,0.0,0.0,97,0.00,,,0.00,meteobridge,2013-07-23 08:30:00,
2013-07-23 04:36:00,67.5,66.6,29.80,NW,305,0.0,0.0,97,0.00,,,0.00,meteobridge,2013-07-23 08:36:00,
2013-07-23 04:43:00,66.9,66.0,29.80,NW,305,0.0,0.0,97,0.00,,,0.00,meteobridge,2013-07-23 08:43:00,
2013-07-23 04:49:00,66.7,65.8,29.80,NW,305,0.0,0.0,97,0.00,,,0.00,meteobridge,2013-07-23 08:49:00,
2013-07-23 04:55:00,67.3,66.7,29.79,NW,305,0.0,0.0,98,0.00,,,0.00,meteobridge,2013-07-23 08:55:00,
2013-07-23 05:02:00,67.5,66.6,29.79,NW,305,0.0,0.0,97,0.00,,,0.00,meteobridge,2013-07-23 09:02:00,
2013-07-23 05:08:00,67.5,66.6,29.79,NW,305,0.0,0.0,97,0.00,,,0.00,meteobridge,2013-07-23 09:08:00,
2013-07-23 05:14:00,67.5,66.6,29.79,NW,305,0.0,0.0,97,0.00,,,0.00,meteobridge,2013-07-23 09:14:00,
2013-07-23 05:21:00,67.6,66.7,29.78,NW,305,0.0,0.0,97,0.00,,,0.00,meteobridge,2013-07-23 09:21:00,
2013-07-23 05:27:00,67.5,66.6,29.79,NW,305,0.0,0.0,97,0.00,,,0.00,meteobridge,2013-07-23 09:27:00,
2013-07-23 05:33:00,67.3,66.4,29.78,NW,305,0.0,0.0,97,0.00,,,0.00,meteobridge,2013-07-23 09:33:00,
2013-07-23 05:39:00,67.3,66.4,29.79,NW,305,0.0,0.0,97,0.00,,,0.00,meteobridge,2013-07-23 09:39:00,
2013-07-23 05:46:00,67.3,66.7,29.78,NW,305,0.0,0.0,98,0.00,,,0.00,meteobridge,2013-07-23 09:46:00,
2013-07-23 05:52:00,67.5,66.6,29.79,NW,306,0.0,0.0,97,0.00,,,0.00,meteobridge,2013-07-23 09:52:00,
2013-07-23 05:58:00,67.5,66.6,29.78,NW,305,0.0,0.0,97,0.00,,,0.00,meteobridge,2013-07-23 09:58:00,
2013-07-23 06:05:00,67.6,66.7,29.78,NW,305,0.0,0.0,97,0.00,,,0.00,meteobridge,2013-07-23 10:05:00,
2013-07-23 06:11:00,67.3,66.4,29.78,NW,305,0.0,0.0,97,0.00,,,0.00,meteobridge,2013-07-23 10:11:00,
2013-07-23 06:17:00,67.5,66.6,29.78,WNW,302,0.0,0.0,97,0.00,,,0.00,meteobridge,2013-07-23 10:17:00,
2013-07-23 06:24:00,66.9,66.0,29.78,WNW,302,0.0,0.0,97,0.00,,,0.00,meteobridge,2013-07-23 10:24:00,
2013-07-23 06:30:00,67.3,66.7,29.78,WNW,302,0.0,0.0,98,0.00,,,0.00,meteobridge,2013-07-23 10:30:00,
2013-07-23 06:36:00,67.1,66.2,29.78,WNW,302,0.0,0.0,97,0.00,,,0.00,meteobridge,2013-07-23 10:36:00,
2013-07-23 06:43:00,66.7,65.8,29.78,WNW,302,0.0,0.0,97,0.00,,,0.00,meteobridge,2013-07-23 10:43:00,
2013-07-23 06:49:00,67.3,66.7,29.77,NW,314,0.0,0.0,98,0.00,,,0.00,meteobridge,2013-07-23 10:49:00,
2013-07-23 06:55:00,67.3,66.7,29.77,NW,314,0.0,0.0,98,0.00,,,0.00,meteobridge,2013-07-23 10:55:00,
2013-07-23 07:02:00,66.7,65.8,29.77,NW,314,0.0,0.0,97,0.00,,,0.00,meteobridge,2013-07-23 11:02:00,
2013-07-23 07:08:00,66.9,66.0,29.77,NW,314,0.0,0.0,97,0.00,,,0.00,meteobridge,2013-07-23 11:08:00,
2013-07-23 07:14:00,67.1,66.2,29.77,NW,314,0.0,0.0,97,0.00,,,0.00,meteobridge,2013-07-23 11:14:00,
2013-07-23 07:21:00,67.8,67.3,29.77,NW,314,0.0,0.0,98,0.00,,,0.00,meteobridge,2013-07-23 11:21:00,
2013-07-23 07:27:00,67.6,66.7,29.77,NW,314,0.0,0.0,97,0.00,,,0.00,meteobridge,2013-07-23 11:27:00,
2013-07-23 07:33:00,68.0,67.1,29.77,NW,314,0.0,0.0,97,0.00,,,0.00,meteobridge,2013-07-23 11:33:00,
2013-07-23 07:39:00,68.4,67.5,29.77,WNW,301,0.0,0.0,97,0.00,,,0.00,meteobridge,2013-07-23 11:39:00,
2013-07-23 07:46:00,68.7,67.8,29.77,SSE,153,0.9,0.9,97,0.00,,,0.00,meteobridge,2013-07-23 11:46:00,
2013-07-23 07:52:00,69.3,68.4,29.78,South,170,0.9,0.9,97,0.00,,,0.00,meteobridge,2013-07-23 11:52:00,
2013-07-23 07:58:00,69.6,68.7,29.77,SSE,155,0.0,2.0,97,0.00,,,0.00,meteobridge,2013-07-23 11:58:00,
2013-07-23 08:05:00,70.3,69.4,29.77,SSE,166,0.0,0.9,97,0.00,,,0.00,meteobridge,2013-07-23 12:05:00,
2013-07-23 08:11:00,70.9,70.0,29.77,South,173,0.0,0.9,97,0.00,,,0.00,meteobridge,2013-07-23 12:11:00,
2013-07-23 08:17:00,71.2,70.3,29.77,SSE,160,2.0,2.0,97,0.00,,,0.00,meteobridge,2013-07-23 12:17:00,
2013-07-23 08:23:00,71.6,70.7,29.77,SSE,161,0.0,2.0,97,0.00,,,0.00,meteobridge,2013-07-23 12:23:00,
2013-07-23 08:30:00,72.1,71.2,29.77,SSE,161,0.0,0.9,97,0.00,,,0.00,meteobridge,2013-07-23 12:30:00,
2013-07-23 08:36:00,72.7,71.8,29.77,SE,144,0.9,2.0,97,0.00,,,0.00,meteobridge,2013-07-23 12:36:00,
2013-07-23 08:42:00,73.0,71.8,29.77,SE,137,0.0,2.0,96,0.00,,,0.00,meteobridge,2013-07-23 12:42:00,
2013-07-23 08:48:00,73.0,71.8,29.77,SSE,151,2.0,2.9,96,0.00,,,0.00,meteobridge,2013-07-23 12:48:00,
2013-07-23 08:54:00,73.2,72.0,29.78,SE,140,2.9,4.9,96,0.00,,,0.00,meteobridge,2013-07-23 12:54:00,
2013-07-23 09:00:00,73.6,72.3,29.78,SSE,155,0.9,4.0,96,0.00,,,0.00,meteobridge,2013-07-23 13:00:00,
2013-07-23 09:07:00,73.9,72.5,29.77,SSE,159,0.9,2.9,95,0.00,,,0.00,meteobridge,2013-07-23 13:07:00,
2013-07-23 09:13:00,74.1,72.7,29.78,SSE,149,0.0,4.0,95,0.00,,,0.00,meteobridge,2013-07-23 13:13:00,
2013-07-23 09:19:00,74.5,73.0,29.77,SSE,165,0.0,4.9,95,0.00,,,0.00,meteobridge,2013-07-23 13:19:00,
2013-07-23 09:25:00,75.2,73.6,29.78,SE,136,2.0,2.9,95,0.00,,,0.00,meteobridge,2013-07-23 13:25:00,
2013-07-23 09:31:00,75.0,73.2,29.78,SE,133,0.9,4.0,94,0.00,,,0.00,meteobridge,2013-07-23 13:31:00,
2013-07-23 09:37:00,75.4,73.6,29.78,SE,136,0.0,2.0,94,0.00,,,0.00,meteobridge,2013-07-23 13:37:00,
2013-07-23 09:44:00,76.3,74.1,29.78,SSW,205,0.0,0.9,93,0.00,,,0.00,meteobridge,2013-07-23 13:44:00,
2013-07-23 09:50:00,76.3,73.8,29.78,NNE,16,0.9,2.9,92,0.00,,,0.00,meteobridge,2013-07-23 13:50:00,
2013-07-23 09:56:00,76.8,73.9,29.78,SSE,155,2.9,4.0,91,0.00,,,0.00,meteobridge,2013-07-23 13:56:00,
2013-07-23 10:02:00,77.5,74.3,29.78,ESE,118,0.0,2.0,90,0.00,,,0.00,meteobridge,2013-07-23 14:02:00,
2013-07-23 10:08:00,78.3,74.7,29.78,SE,141,0.0,2.0,89,0.00,,,0.00,meteobridge,2013-07-23 14:08:00,
2013-07-23 10:14:00,78.4,74.8,29.79,ESE,122,0.9,2.0,89,0.00,,,0.00,meteobridge,2013-07-23 14:14:00,
2013-07-23 10:16:00,78.4,74.8,29.78,SSE,156,0.9,2.9,89,0.00,,,0.00,meteobridge,2013-07-23 14:16:00,
2013-07-23 10:23:00,79.3,75.7,29.78,SE,139,2.0,2.0,89,0.00,,,0.00,meteobridge,2013-07-23 14:23:00,
2013-07-23 10:29:00,79.9,75.9,29.79,WNW,290,2.0,2.0,88,0.00,,,0.00,meteobridge,2013-07-23 14:29:00,
2013-07-23 10:35:00,80.2,75.4,29.79,ESE,114,2.0,2.0,85,0.00,,,0.00,meteobridge,2013-07-23 14:35:00,
2013-07-23 10:41:00,79.9,75.7,29.79,South,181,0.0,2.0,87,0.00,,,0.00,meteobridge,2013-07-23 14:41:00,
2013-07-23 10:48:00,81.1,76.3,29.79,South,188,4.9,4.9,85,0.00,,,0.00,meteobridge,2013-07-23 14:48:00,
2013-07-23 10:54:00,81.3,76.6,29.79,SE,129,0.9,2.0,86,0.00,,,0.00,meteobridge,2013-07-23 14:54:00,
2013-07-23 11:00:00,81.9,76.8,29.79,West,268,0.9,4.0,85,0.00,,,0.00,meteobridge,2013-07-23 15:00:00,
2013-07-23 11:06:00,82.6,76.8,29.79,West,266,0.9,0.9,83,0.00,,,0.00,meteobridge,2013-07-23 15:06:00,
2013-07-23 11:12:00,82.0,76.6,29.79,SW,231,0.0,4.0,84,0.00,,,0.00,meteobridge,2013-07-23 15:12:00,
2013-07-23 11:18:00,82.6,76.8,29.79,WNW,282,2.0,4.0,83,0.00,,,0.00,meteobridge,2013-07-23 15:18:00,
2013-07-23 11:24:00,82.6,76.8,29.79,SE,127,0.0,2.9,83,0.00,,,0.00,meteobridge,2013-07-23 15:24:00,
2013-07-23 11:30:00,82.8,75.9,29.79,SE,138,4.0,4.9,80,0.00,,,0.00,meteobridge,2013-07-23 15:30:00,
2013-07-23 11:36:00,83.1,75.9,29.79,SSE,163,2.0,6.0,79,0.00,,,0.00,meteobridge,2013-07-23 15:36:00,
2013-07-23 11:42:00,84.0,77.2,29.79,East,95,0.9,4.0,80,0.00,,,0.00,meteobridge,2013-07-23 15:42:00,
2013-07-23 11:48:00,84.7,77.9,29.80,SSE,157,0.9,2.9,80,0.00,,,0.00,meteobridge,2013-07-23 15:48:00,
2013-07-23 11:54:00,84.0,76.5,29.79,SW,221,0.9,4.9,78,0.00,,,0.00,meteobridge,2013-07-23 15:54:00,
2013-07-23 12:01:00,84.0,77.2,29.80,SSE,147,0.9,4.0,80,0.00,,,0.00,meteobridge,2013-07-23 16:01:00,
2013-07-23 12:07:00,85.3,78.4,29.80,West,271,0.9,2.9,80,0.00,,,0.00,meteobridge,2013-07-23 16:07:00,
2013-07-23 12:13:00,86.4,77.5,29.79,SE,133,0.0,4.9,75,0.00,,,0.00,meteobridge,2013-07-23 16:13:00,
2013-07-23 12:19:00,84.9,76.5,29.79,SSE,155,0.9,4.9,76,0.00,,,0.00,meteobridge,2013-07-23 16:19:00,
2013-07-23 12:25:00,84.7,76.3,29.79,South,181,4.0,6.0,76,0.00,,,0.00,meteobridge,2013-07-23 16:25:00,
2013-07-23 12:31:00,85.5,77.4,29.79,West,259,4.0,4.0,77,0.00,,,0.00,meteobridge,2013-07-23 16:31:00,
2013-07-23 12:37:00,85.8,77.7,29.79,West,266,0.0,2.0,77,0.00,,,0.00,meteobridge,2013-07-23 16:37:00,
2013-07-23 12:43:00,86.0,77.2,29.79,SSE,150,0.9,6.0,75,0.00,,,0.00,meteobridge,2013-07-23 16:43:00,
2013-07-23 12:50:00,85.5,77.0,29.79,WNW,282,0.9,2.9,76,0.00,,,0.00,meteobridge,2013-07-23 16:50:00,
2013-07-23 12:56:00,85.8,77.7,29.78,WNW,284,0.9,6.9,77,0.00,,,0.00,meteobridge,2013-07-23 16:56:00,
2013-07-23 13:02:00,86.0,77.2,29.78,SSE,149,2.9,4.0,75,0.00,,,0.00,meteobridge,2013-07-23 17:02:00,
2013-07-23 13:08:00,85.8,77.0,29.78,SSE,153,0.9,4.0,75,0.00,,,0.00,meteobridge,2013-07-23 17:08:00,
2013-07-23 13:14:00,84.7,75.9,29.78,SW,224,0.0,0.9,75,0.00,,,0.00,meteobridge,2013-07-23 17:14:00,
2013-07-23 13:20:00,85.8,77.4,29.77,WNW,296,0.9,8.1,76,0.00,,,0.00,meteobridge,2013-07-23 17:20:00,
2013-07-23 13:26:00,87.6,79.5,29.77,West,280,2.0,4.9,77,0.00,,,0.00,meteobridge,2013-07-23 17:26:00,
2013-07-23 13:32:00,87.1,76.1,29.76,SSE,147,0.0,2.9,70,0.00,,,0.00,meteobridge,2013-07-23 17:32:00,
2013-07-23 13:38:00,88.5,77.5,29.76,SSE,165,0.9,8.1,70,0.00,,,0.00,meteobridge,2013-07-23 17:38:00,
2013-07-23 13:44:00,88.2,76.3,29.75,SSW,205,0.0,2.9,68,0.00,,,0.00,meteobridge,2013-07-23 17:44:00,
2013-07-23 13:51:00,85.8,75.4,29.74,WNW,299,0.0,2.0,71,0.00,,,0.00,meteobridge,2013-07-23 17:51:00,
2013-07-23 13:57:00,84.6,75.4,29.74,SE,142,0.9,2.9,74,0.00,,,0.00,meteobridge,2013-07-23 17:57:00,
2013-07-23 14:04:00,83.7,75.2,29.75,SW,231,0.9,2.0,76,0.00,,,0.00,meteobridge,2013-07-23 18:04:00,
2013-07-23 14:10:00,81.3,73.0,29.76,WNW,292,8.1,8.9,76,0.01,,,0.01,meteobridge,2013-07-23 18:10:00,
2013-07-23 14:16:00,76.3,71.8,29.75,NW,311,2.9,11.0,86,0.07,,,0.07,meteobridge,2013-07-23 18:16:00,
2013-07-23 14:24:00,72.3,68.2,29.77,NNW,334,8.1,14.1,87,0.20,,,0.20,meteobridge,2013-07-23 18:24:00,
2013-07-23 14:30:00,70.9,67.8,29.80,NNW,340,4.0,11.0,90,0.32,,,0.32,meteobridge,2013-07-23 18:30:00,
2013-07-23 14:36:00,69.1,66.7,29.80,SSW,213,2.0,4.9,92,0.53,,,0.53,meteobridge,2013-07-23 18:36:00,
2013-07-23 14:43:00,69.1,67.3,29.77,NNW,327,0.9,6.9,94,0.57,,,0.57,meteobridge,2013-07-23 18:43:00,
2013-07-23 14:49:00,69.6,67.5,29.77,SSW,197,2.9,2.9,93,0.58,,,0.58,meteobridge,2013-07-23 18:49:00,
2013-07-23 14:55:00,70.2,67.1,29.77,WSW,254,0.9,2.9,90,0.58,,,0.58,meteobridge,2013-07-23 18:55:00,
2013-07-23 15:01:00,69.8,67.3,29.78,South,171,0.9,0.9,92,0.58,,,0.58,meteobridge,2013-07-23 19:01:00,
2013-07-23 15:07:00,69.4,66.7,29.80,SSE,167,0.0,4.9,91,0.62,,,0.63,meteobridge,2013-07-23 19:07:00,
2013-07-23 15:13:00,69.3,67.5,29.80,SSE,147,2.0,2.0,94,0.63,,,0.69,meteobridge,2013-07-23 19:13:00,
2013-07-23 15:20:00,69.6,68.2,29.79,WSW,239,0.0,2.0,95,0.54,,,0.69,meteobridge,2013-07-23 19:20:00,
2013-07-23 15:30:00,72.0,70.2,29.79,SSW,208,0.0,2.0,94,0.35,,,0.69,meteobridge,2013-07-23 19:30:00,
2013-07-23 15:36:00,71.8,70.0,29.78,East,97,0.0,0.9,94,0.16,,,0.69,meteobridge,2013-07-23 19:36:00,
2013-07-23 15:43:00,71.1,69.3,29.79,South,182,0.0,0.0,94,0.13,,,0.70,meteobridge,2013-07-23 19:43:00,
2013-07-23 15:50:00,70.7,69.3,29.79,South,185,2.9,2.9,95,0.18,,,0.76,meteobridge,2013-07-23 19:50:00,
2013-07-23 15:56:00,70.9,69.6,29.78,South,186,0.9,4.0,96,0.18,,,0.76,meteobridge,2013-07-23 19:56:00,
2013-07-23 16:02:00,72.0,70.7,29.77,SSE,159,0.0,0.9,96,0.17,,,0.76,meteobridge,2013-07-23 20:02:00,
2013-07-23 18:17:00,83.5,75.6,29.73,NNW,330,0.0,2.0,77,0.00,,,0.77,meteobridge,2013-07-23 22:17:00,
2013-07-23 18:25:00,83.5,75.9,29.73,SSW,196,0.0,2.0,78,0.00,,,0.77,meteobridge,2013-07-23 22:25:00,
2013-07-23 18:32:00,83.5,76.3,29.73,SSW,208,0.0,0.0,79,0.00,,,0.77,meteobridge,2013-07-23 22:32:00,
2013-07-23 18:38:00,83.3,75.4,29.72,SSE,154,0.0,2.0,77,0.00,,,0.77,meteobridge,2013-07-23 22:38:00,
2013-07-23 18:44:00,82.8,76.3,29.72,NW,324,0.0,2.0,81,0.00,,,0.77,meteobridge,2013-07-23 22:44:00,
2013-07-23 18:50:00,82.0,75.9,29.72,NW,313,0.0,2.0,82,0.00,,,0.77,meteobridge,2013-07-23 22:50:00,
2013-07-23 18:57:00,82.8,76.3,29.72,NW,315,0.0,0.9,81,0.00,,,0.77,meteobridge,2013-07-23 22:57:00,
2013-07-23 19:03:00,82.9,75.4,29.73,NW,313,2.0,2.9,78,0.00,,,0.77,meteobridge,2013-07-23 23:03:00,
2013-07-23 19:09:00,82.9,73.8,29.73,WNW,290,2.9,2.9,74,0.00,,,0.77,meteobridge,2013-07-23 23:09:00,
2013-07-23 19:15:00,82.6,72.7,29.73,WNW,288,2.0,4.0,72,0.00,,,0.77,meteobridge,2013-07-23 23:15:00,
2013-07-23 19:21:00,82.0,72.5,29.73,NW,315,2.9,4.9,73,0.00,,,0.77,meteobridge,2013-07-23 23:21:00,
2013-07-23 19:27:00,81.5,72.3,29.73,NW,321,0.9,6.0,74,0.00,,,0.77,meteobridge,2013-07-23 23:27:00,
2013-07-23 19:34:00,81.7,72.5,29.73,NW,313,2.0,4.0,74,0.00,,,0.77,meteobridge,2013-07-23 23:34:00,
2013-07-23 19:40:00,81.3,71.8,29.73,WNW,299,2.0,4.0,73,0.00,,,0.77,meteobridge,2013-07-23 23:40:00,
2013-07-23 19:46:00,80.8,72.1,29.73,NW,315,0.9,2.0,75,0.00,,,0.77,meteobridge,2013-07-23 23:46:00,
2013-07-23 19:52:00,80.4,72.1,29.73,NNW,332,0.9,2.0,76,0.00,,,0.77,meteobridge,2013-07-23 23:52:00,
2013-07-23 19:58:00,80.2,72.3,29.73,NW,311,0.9,2.0,77,0.00,,,0.77,meteobridge,2013-07-23 23:58:00,
2013-07-23 20:05:00,80.1,72.1,29.73,NW,326,2.0,4.0,77,0.00,,,0.00,meteobridge,2013-07-24 00:05:00,
2013-07-23 20:11:00,79.5,72.1,29.73,NW,320,0.9,2.9,78,0.00,,,0.00,meteobridge,2013-07-24 00:11:00,
2013-07-23 20:17:00,79.2,72.1,29.73,WNW,295,0.0,6.0,79,0.00,,,0.00,meteobridge,2013-07-24 00:17:00,
2013-07-23 20:23:00,79.0,72.0,29.74,WNW,299,2.9,4.0,79,0.00,,,0.00,meteobridge,2013-07-24 00:23:00,
2013-07-23 20:29:00,78.6,71.2,29.74,NNW,338,2.0,8.1,78,0.00,,,0.00,meteobridge,2013-07-24 00:29:00,
2013-07-23 20:36:00,78.4,71.1,29.74,NNW,330,0.9,2.9,78,0.00,,,0.00,meteobridge,2013-07-24 00:36:00,
2013-07-23 20:42:00,78.1,70.7,29.74,NW,321,0.9,2.0,78,0.00,,,0.00,meteobridge,2013-07-24 00:42:00,
2013-07-23 20:48:00,77.9,69.8,29.74,NW,314,2.0,6.9,76,0.00,,,0.00,meteobridge,2013-07-24 00:48:00,
2013-07-23 20:54:00,77.5,69.4,29.75,NW,312,0.9,2.0,76,0.00,,,0.00,meteobridge,2013-07-24 00:54:00,
2013-07-23 21:00:00,77.4,69.3,29.75,NW,315,0.9,4.0,76,0.00,,,0.00,meteobridge,2013-07-24 01:00:00,
2013-07-23 21:06:00,77.0,69.3,29.75,WNW,292,2.0,2.9,77,0.00,,,0.00,meteobridge,2013-07-24 01:06:00,
2013-07-23 21:12:00,76.6,68.9,29.76,WNW,298,0.0,2.9,77,0.00,,,0.00,meteobridge,2013-07-24 01:12:00,
2013-07-23 21:18:00,76.3,68.9,29.76,NNW,336,0.0,0.9,78,0.00,,,0.00,meteobridge,2013-07-24 01:18:00,
2013-07-23 21:25:00,75.9,68.9,29.76,NNW,339,0.0,0.0,79,0.00,,,0.00,meteobridge,2013-07-24 01:25:00,
2013-07-23 21:31:00,75.6,68.9,29.76,NNW,339,0.0,0.0,80,0.00,,,0.00,meteobridge,2013-07-24 01:31:00,
2013-07-23 21:37:00,75.4,69.1,29.77,NNW,339,0.0,0.9,81,0.00,,,0.00,meteobridge,2013-07-24 01:37:00,
2013-07-23 21:42:00,75.0,68.7,29.77,NNW,339,0.0,0.0,81,0.00,,,0.00,meteobridge,2013-07-24 01:42:00,
2013-07-23 21:49:00,74.7,69.1,29.78,NNW,339,0.0,0.0,83,0.00,,,0.00,meteobridge,2013-07-24 01:49:00,
2013-07-23 21:55:00,74.7,69.1,29.78,NW,319,0.9,4.0,83,0.00,,,0.00,meteobridge,2013-07-24 01:55:00,
2013-07-23 22:01:00,74.8,69.3,29.79,NNW,345,2.0,2.9,83,0.00,,,0.00,meteobridge,2013-07-24 02:01:00,
2013-07-23 22:07:00,74.8,69.3,29.80,NW,326,2.0,4.9,83,0.00,,,0.00,meteobridge,2013-07-24 02:07:00,
2013-07-23 22:13:00,74.7,69.1,29.80,NW,326,0.9,6.0,83,0.00,,,0.00,meteobridge,2013-07-24 02:13:00,
2013-07-23 22:19:00,74.1,68.5,29.81,NNW,334,2.9,4.9,83,0.00,,,0.00,meteobridge,2013-07-24 02:19:00,
2013-07-23 22:25:00,73.9,68.4,29.81,NNW,335,2.9,6.0,83,0.00,,,0.00,meteobridge,2013-07-24 02:25:00,
2013-07-23 22:31:00,73.6,68.2,29.82,NW,312,0.9,4.0,83,0.00,,,0.00,meteobridge,2013-07-24 02:31:00,
2013-07-23 22:38:00,73.2,67.8,29.82,NNW,345,0.9,6.0,83,0.00,,,0.00,meteobridge,2013-07-24 02:38:00,
2013-07-23 22:44:00,73.0,67.6,29.83,NW,316,2.0,4.0,83,0.00,,,0.00,meteobridge,2013-07-24 02:44:00,
2013-07-23 22:50:00,72.9,67.1,29.82,NW,312,0.9,4.0,82,0.00,,,0.00,meteobridge,2013-07-24 02:50:00,
2013-07-23 22:56:00,72.3,66.6,29.83,NNW,330,2.0,2.9,82,0.00,,,0.00,meteobridge,2013-07-24 02:56:00,
2013-07-23 23:02:00,72.1,66.4,29.83,NNW,328,2.9,6.9,82,0.00,,,0.00,meteobridge,2013-07-24 03:02:00,
2013-07-23 23:08:00,72.0,65.5,29.83,NW,326,0.0,6.9,80,0.00,,,0.00,meteobridge,2013-07-24 03:08:00,
2013-07-23 23:14:00,72.0,64.8,29.84,NNW,328,2.9,6.9,78,0.00,,,0.00,meteobridge,2013-07-24 03:14:00,
2013-07-23 23:20:00,71.4,63.9,29.84,NNW,334,0.0,6.0,77,0.00,,,0.00,meteobridge,2013-07-24 03:20:00,
2013-07-23 23:27:00,71.2,63.7,29.84,NW,313,2.0,10.1,77,0.00,,,0.00,meteobridge,2013-07-24 03:27:00,
2013-07-23 23:33:00,71.1,63.1,29.84,NNW,330,2.9,4.9,76,0.00,,,0.00,meteobridge,2013-07-24 03:33:00,
2013-07-23 23:39:00,70.9,62.6,29.84,NW,305,0.9,6.0,75,0.00,,,0.00,meteobridge,2013-07-24 03:39:00,
2013-07-23 23:45:00,70.9,62.6,29.83,NNW,331,0.9,8.9,75,0.00,,,0.00,meteobridge,2013-07-24 03:45:00,
2013-07-23 23:51:00,70.5,63.0,29.83,NNE,12,0.0,4.9,77,0.00,,,0.00,meteobridge,2013-07-24 03:51:00,
2013-07-23 23:59:00,70.3,63.1,29.83,NW,319,4.0,4.0,78,0.00,,,0.00,meteobridge,2013-07-24 03:59:00,